sensor_id;sensor_type;location;lat;lon;timestamp;pressure;altitude;pressure_sealevel;temperature;humidity
34297;BME280;20564;42.902;25.336;2024-03-23T00:56:21;97322.53;;;0.14;93.28
34297;BME280;20564;42.902;25.336;2024-03-23T00:58:48;97314.78;;;0.14;92.98
34297;BME280;20564;42.902;25.336;2024-03-23T01:01:16;97316.66;;;0.11;93.05
34297;BME280;20564;42.902;25.336;2024-03-23T01:03:47;97310.59;;;0.12;92.66
34297;BME280;20564;42.902;25.336;2024-03-23T01:06:14;97309.81;;;0.10;92.27
34297;BME280;20564;42.902;25.336;2024-03-23T01:08:40;97313.25;;;0.10;92.36
34297;BME280;20564;42.902;25.336;2024-03-23T01:11:07;97307.19;;;0.11;92.59
34297;BME280;20564;42.902;25.336;2024-03-23T01:13:34;97311.44;;;0.12;92.18
34297;BME280;20564;42.902;25.336;2024-03-23T01:16:26;97312.28;;;0.13;91.89
34297;BME280;20564;42.902;25.336;2024-03-23T01:19:06;97304.59;;;0.11;91.77
34297;BME280;20564;42.902;25.336;2024-03-23T01:21:33;97303.69;;;0.12;91.83
34297;BME280;20564;42.902;25.336;2024-03-23T01:24:09;97300.44;;;0.07;91.30
34297;BME280;20564;42.902;25.336;2024-03-23T01:26:42;97306.50;;;0.08;91.47
34297;BME280;20564;42.902;25.336;2024-03-23T01:29:08;97307.19;;;0.11;91.01
34297;BME280;20564;42.902;25.336;2024-03-23T01:31:35;97303.97;;;0.06;90.81
34297;BME280;20564;42.902;25.336;2024-03-23T01:34:04;97300.63;;;0.04;90.54
34297;BME280;20564;42.902;25.336;2024-03-23T01:36:40;97293.91;;;0.00;91.10
34297;BME280;20564;42.902;25.336;2024-03-23T01:39:09;97286.31;;;-0.03;90.84
34297;BME280;20564;42.902;25.336;2024-03-23T01:41:40;97293.97;;;-0.02;90.57
34297;BME280;20564;42.902;25.336;2024-03-23T01:44:24;97297.84;;;-0.10;90.19
34297;BME280;20564;42.902;25.336;2024-03-23T01:46:51;97294.47;;;-0.12;90.48
34297;BME280;20564;42.902;25.336;2024-03-23T01:49:23;97290.97;;;-0.11;90.86
34297;BME280;20564;42.902;25.336;2024-03-23T01:51:59;97286.94;;;-0.17;90.89
34297;BME280;20564;42.902;25.336;2024-03-23T01:54:25;97287.91;;;-0.19;91.00
34297;BME280;20564;42.902;25.336;2024-03-23T01:56:57;97289.59;;;-0.18;90.72
34297;BME280;20564;42.902;25.336;2024-03-23T01:59:24;97290.03;;;-0.28;90.83
34297;BME280;20564;42.902;25.336;2024-03-23T02:01:51;97290.03;;;-0.28;91.25
34297;BME280;20564;42.902;25.336;2024-03-23T02:04:17;97295.13;;;-0.26;91.52
34297;BME280;20564;42.902;25.336;2024-03-23T02:06:47;97291.69;;;-0.27;91.39
34297;BME280;20564;42.902;25.336;2024-03-23T02:09:14;97291.31;;;-0.36;91.33
34297;BME280;20564;42.902;25.336;2024-03-23T02:11:41;97282.84;;;-0.40;91.18
34297;BME280;20564;42.902;25.336;2024-03-23T02:14:06;97293.94;;;-0.38;91.55
34297;BME280;20564;42.902;25.336;2024-03-23T02:16:33;97285.44;;;-0.40;91.95
34297;BME280;20564;42.902;25.336;2024-03-23T02:18:59;97294.06;;;-0.41;91.74
34297;BME280;20564;42.902;25.336;2024-03-23T02:21:29;97284.72;;;-0.43;91.59
34297;BME280;20564;42.902;25.336;2024-03-23T02:24:20;97287.38;;;-0.45;91.47
34297;BME280;20564;42.902;25.336;2024-03-23T02:26:45;97287.38;;;-0.45;91.33
34297;BME280;20564;42.902;25.336;2024-03-23T02:29:14;97295.22;;;-0.46;91.67
34297;BME280;20564;42.902;25.336;2024-03-23T02:31:45;97296.97;;;-0.47;91.71
34297;BME280;20564;42.902;25.336;2024-03-23T02:34:17;97291.56;;;-0.42;91.54
34297;BME280;20564;42.902;25.336;2024-03-23T02:36:44;97284.91;;;-0.48;91.02
34297;BME280;20564;42.902;25.336;2024-03-23T02:39:13;97289.47;;;-0.53;90.82
34297;BME280;20564;42.902;25.336;2024-03-23T02:41:42;97298.28;;;-0.57;91.30
34297;BME280;20564;42.902;25.336;2024-03-23T02:44:10;97294.06;;;-0.60;91.34
34297;BME280;20564;42.902;25.336;2024-03-23T02:46:39;97297.00;;;-0.67;91.29
34297;BME280;20564;42.902;25.336;2024-03-23T02:49:09;97300.44;;;-0.67;91.65
34297;BME280;20564;42.902;25.336;2024-03-23T02:51:39;97297.78;;;-0.65;91.26
34297;BME280;20564;42.902;25.336;2024-03-23T02:54:13;97287.22;;;-0.61;91.40
34297;BME280;20564;42.902;25.336;2024-03-23T02:56:47;97292.88;;;-0.71;91.16
34297;BME280;20564;42.902;25.336;2024-03-23T02:59:16;97292.09;;;-0.74;92.36
34297;BME280;20564;42.902;25.336;2024-03-23T03:01:42;97287.63;;;-0.70;91.43
34297;BME280;20564;42.902;25.336;2024-03-23T03:04:11;97291.41;;;-0.77;91.75
34297;BME280;20564;42.902;25.336;2024-03-23T03:06:37;97283.72;;;-0.79;91.88
34297;BME280;20564;42.902;25.336;2024-03-23T03:09:06;97280.34;;;-0.81;92.14
34297;BME280;20564;42.902;25.336;2024-03-23T03:11:32;97280.34;;;-0.81;91.93
34297;BME280;20564;42.902;25.336;2024-03-23T03:13:58;97281.34;;;-0.83;91.34
34297;BME280;20564;42.902;25.336;2024-03-23T03:16:26;97291.38;;;-0.96;92.18
34297;BME280;20564;42.902;25.336;2024-03-23T03:19:01;97290.66;;;-1.00;93.17
34297;BME280;20564;42.902;25.336;2024-03-23T03:21:50;97284.03;;;-1.05;93.56
34297;BME280;20564;42.902;25.336;2024-03-23T03:24:16;97283.38;;;-1.10;93.54
34297;BME280;20564;42.902;25.336;2024-03-23T03:26:43;97284.16;;;-1.08;93.70
34297;BME280;20564;42.902;25.336;2024-03-23T03:29:12;97283.25;;;-1.07;94.30
34297;BME280;20564;42.902;25.336;2024-03-23T03:31:41;97281.31;;;-1.02;93.54
34297;BME280;20564;42.902;25.336;2024-03-23T03:34:09;97282.53;;;-1.11;93.59
34297;BME280;20564;42.902;25.336;2024-03-23T03:36:36;97284.38;;;-1.13;93.88
34297;BME280;20564;42.902;25.336;2024-03-23T03:39:02;97282.50;;;-1.09;93.71
34297;BME280;20564;42.902;25.336;2024-03-23T03:41:39;97281.63;;;-1.10;93.32
34297;BME280;20564;42.902;25.336;2024-03-23T03:44:21;97293.84;;;-1.13;93.07
34297;BME280;20564;42.902;25.336;2024-03-23T03:46:47;97290.59;;;-1.17;93.36
34297;BME280;20564;42.902;25.336;2024-03-23T03:49:13;97289.78;;;-1.19;93.57
34297;BME280;20564;42.902;25.336;2024-03-23T03:51:48;97293.22;;;-1.18;94.97
34297;BME280;20564;42.902;25.336;2024-03-23T03:54:14;97286.88;;;-1.11;96.45
34297;BME280;20564;42.902;25.336;2024-03-23T03:56:40;97295.22;;;-1.05;98.06
34297;BME280;20564;42.902;25.336;2024-03-23T03:59:13;97297.66;;;-1.02;98.82
34297;BME280;20564;42.902;25.336;2024-03-23T04:02:06;97295.13;;;-1.03;98.43
34297;BME280;20564;42.902;25.336;2024-03-23T04:04:32;97291.78;;;-1.05;97.71
34297;BME280;20564;42.902;25.336;2024-03-23T04:07:11;97299.47;;;-1.04;96.94
34297;BME280;20564;42.902;25.336;2024-03-23T04:09:37;97296.13;;;-1.06;95.96
34297;BME280;20564;42.902;25.336;2024-03-23T04:12:04;97302.25;;;-1.08;95.41
34297;BME280;20564;42.902;25.336;2024-03-23T04:14:40;97295.66;;;-1.15;94.35
34297;BME280;20564;42.902;25.336;2024-03-23T04:17:09;97301.75;;;-1.16;94.44
34297;BME280;20564;42.902;25.336;2024-03-23T04:19:39;97296.63;;;-1.18;94.22
34297;BME280;20564;42.902;25.336;2024-03-23T04:22:08;97301.78;;;-1.18;93.89
34297;BME280;20564;42.902;25.336;2024-03-23T04:24:54;97294.13;;;-1.19;93.65
34297;BME280;20564;42.902;25.336;2024-03-23T04:27:23;97302.06;;;-1.24;93.49
34297;BME280;20564;42.902;25.336;2024-03-23T04:29:53;97289.91;;;-1.22;93.02
34297;BME280;20564;42.902;25.336;2024-03-23T04:32:28;97296.00;;;-1.23;93.14
34297;BME280;20564;42.902;25.336;2024-03-23T04:34:55;97294.97;;;-1.19;93.09
34297;BME280;20564;42.902;25.336;2024-03-23T04:37:28;97293.09;;;-1.15;92.69
34297;BME280;20564;42.902;25.336;2024-03-23T04:39:55;97302.91;;;-1.24;92.14
34297;BME280;20564;42.902;25.336;2024-03-23T04:42:24;97292.59;;;-1.24;92.67
34297;BME280;20564;42.902;25.336;2024-03-23T04:45:05;97299.28;;;-1.19;92.69
34297;BME280;20564;42.902;25.336;2024-03-23T04:47:32;97295.66;;;-1.15;93.06
34297;BME280;20564;42.902;25.336;2024-03-23T04:50:02;97297.09;;;-1.08;92.70
34297;BME280;20564;42.902;25.336;2024-03-23T04:52:32;97295.13;;;-1.03;92.62
34297;BME280;20564;42.902;25.336;2024-03-23T04:55:05;97293.81;;;-0.93;93.04
34297;BME280;20564;42.902;25.336;2024-03-23T04:57:41;97291.94;;;-0.89;92.09
34297;BME280;20564;42.902;25.336;2024-03-23T05:00:16;97286.44;;;-0.82;92.29
34297;BME280;20564;42.902;25.336;2024-03-23T05:02:46;97293.94;;;-0.76;92.20
34297;BME280;20564;42.902;25.336;2024-03-23T05:05:12;97296.09;;;-0.66;91.59
34297;BME280;20564;42.902;25.336;2024-03-23T05:07:42;97294.03;;;-0.58;91.54
34297;BME280;20564;42.902;25.336;2024-03-23T05:10:09;97285.97;;;-0.52;91.65
34297;BME280;20564;42.902;25.336;2024-03-23T05:12:39;97281.44;;;-0.47;91.65
34297;BME280;20564;42.902;25.336;2024-03-23T05:15:06;97288.63;;;-0.35;91.68
34297;BME280;20564;42.902;25.336;2024-03-23T05:17:41;97283.19;;;-0.29;91.91
34297;BME280;20564;42.902;25.336;2024-03-23T05:20:07;97282.59;;;-0.16;92.29
34297;BME280;20564;42.902;25.336;2024-03-23T05:22:39;97286.91;;;0.02;92.75
34297;BME280;20564;42.902;25.336;2024-03-23T05:25:05;97286.16;;;0.17;92.78
34297;BME280;20564;42.902;25.336;2024-03-23T05:27:32;97287.81;;;0.37;92.72
34297;BME280;20564;42.902;25.336;2024-03-23T05:29:58;97287.88;;;0.53;92.38
34297;BME280;20564;42.902;25.336;2024-03-23T05:32:25;97285.28;;;0.70;93.20
34297;BME280;20564;42.902;25.336;2024-03-23T05:34:51;97282.69;;;0.88;93.27
34297;BME280;20564;42.902;25.336;2024-03-23T05:37:22;97288.28;;;1.13;93.00
34297;BME280;20564;42.902;25.336;2024-03-23T05:39:58;97285.16;;;1.40;92.67
34297;BME280;20564;42.902;25.336;2024-03-23T05:42:24;97284.75;;;1.63;92.39
34297;BME280;20564;42.902;25.336;2024-03-23T05:44:50;97284.41;;;1.85;93.14
34297;BME280;20564;42.902;25.336;2024-03-23T05:47:19;97275.94;;;2.13;92.05
34297;BME280;20564;42.902;25.336;2024-03-23T05:49:46;97276.41;;;2.36;91.08
34297;BME280;20564;42.902;25.336;2024-03-23T05:52:17;97273.13;;;2.62;89.67
34297;BME280;20564;42.902;25.336;2024-03-23T05:54:44;97269.66;;;2.92;89.44
34297;BME280;20564;42.902;25.336;2024-03-23T05:57:10;97271.94;;;3.27;87.82
34297;BME280;20564;42.902;25.336;2024-03-23T05:59:40;97258.97;;;3.54;87.39
34297;BME280;20564;42.902;25.336;2024-03-23T06:02:09;97252.84;;;3.96;85.85
34297;BME280;20564;42.902;25.336;2024-03-23T06:04:36;97259.66;;;4.39;83.75
34297;BME280;20564;42.902;25.336;2024-03-23T06:07:04;97259.53;;;4.80;81.42
34297;BME280;20564;42.902;25.336;2024-03-23T06:09:32;97247.03;;;5.11;79.46
34297;BME280;20564;42.902;25.336;2024-03-23T06:11:58;97251.81;;;5.42;77.38
34297;BME280;20564;42.902;25.336;2024-03-23T06:14:28;97248.28;;;5.80;76.45
34297;BME280;20564;42.902;25.336;2024-03-23T06:17:07;97243.91;;;6.28;75.32
34297;BME280;20564;42.902;25.336;2024-03-23T06:19:34;97242.75;;;6.68;73.87
34297;BME280;20564;42.902;25.336;2024-03-23T06:24:52;97232.03;;;7.40;66.50
34297;BME280;20564;42.902;25.336;2024-03-23T06:27:31;97238.31;;;7.71;64.89
34297;BME280;20564;42.902;25.336;2024-03-23T06:29:59;97229.94;;;8.00;63.51
34297;BME280;20564;42.902;25.336;2024-03-23T06:32:25;97232.22;;;8.25;62.28
34297;BME280;20564;42.902;25.336;2024-03-23T06:34:52;97230.19;;;8.40;61.12
34297;BME280;20564;42.902;25.336;2024-03-23T06:37:28;97224.53;;;8.56;60.64
34297;BME280;20564;42.902;25.336;2024-03-23T06:39:54;97230.53;;;8.88;60.02
34297;BME280;20564;42.902;25.336;2024-03-23T06:42:21;97226.63;;;9.34;59.34
34297;BME280;20564;42.902;25.336;2024-03-23T06:44:47;97214.88;;;9.69;57.04
34297;BME280;20564;42.902;25.336;2024-03-23T06:47:14;97212.19;;;10.00;56.97
34297;BME280;20564;42.902;25.336;2024-03-23T06:49:42;97215.28;;;10.34;57.79
34297;BME280;20564;42.902;25.336;2024-03-23T06:54:54;97213.84;;;10.98;53.84
34297;BME280;20564;42.902;25.336;2024-03-23T06:57:21;97210.84;;;11.30;56.47
34297;BME280;20564;42.902;25.336;2024-03-23T06:59:50;97208.84;;;11.69;53.75
34297;BME280;20564;42.902;25.336;2024-03-23T07:02:19;97194.72;;;11.98;49.41
34297;BME280;20564;42.902;25.336;2024-03-23T07:04:52;97197.22;;;12.17;46.50
34297;BME280;20564;42.902;25.336;2024-03-23T07:07:18;97187.41;;;12.27;48.99
34297;BME280;20564;42.902;25.336;2024-03-23T07:09:45;97193.28;;;12.57;46.80
34297;BME280;20564;42.902;25.336;2024-03-23T07:12:12;97183.22;;;12.78;47.67
34297;BME280;20564;42.902;25.336;2024-03-23T07:14:38;97185.03;;;13.04;45.14
34297;BME280;20564;42.902;25.336;2024-03-23T07:17:06;97175.16;;;13.32;44.43
34297;BME280;20564;42.902;25.336;2024-03-23T07:19:34;97180.06;;;13.53;43.50
34297;BME280;20564;42.902;25.336;2024-03-23T07:22:01;97173.50;;;13.73;43.93
34297;BME280;20564;42.902;25.336;2024-03-23T07:24:27;97168.75;;;13.85;44.63
34297;BME280;20564;42.902;25.336;2024-03-23T07:26:58;97163.50;;;14.02;41.21
34297;BME280;20564;42.902;25.336;2024-03-23T07:29:28;97162.38;;;14.29;40.72
34297;BME280;20564;42.902;25.336;2024-03-23T07:31:56;97161.91;;;14.66;39.07
34297;BME280;20564;42.902;25.336;2024-03-23T07:34:22;97161.75;;;14.92;39.39
34297;BME280;20564;42.902;25.336;2024-03-23T07:36:50;97148.06;;;15.28;36.03
34297;BME280;20564;42.902;25.336;2024-03-23T07:39:16;97148.66;;;15.54;37.63
34297;BME280;20564;42.902;25.336;2024-03-23T07:41:48;97136.56;;;15.83;34.60
34297;BME280;20564;42.902;25.336;2024-03-23T07:44:18;97138.13;;;16.00;33.14
34297;BME280;20564;42.902;25.336;2024-03-23T07:46:50;97136.91;;;16.34;32.87
34297;BME280;20564;42.902;25.336;2024-03-23T07:49:17;97126.16;;;16.50;27.05
34297;BME280;20564;42.902;25.336;2024-03-23T07:51:47;97126.72;;;16.83;27.03
34297;BME280;20564;42.902;25.336;2024-03-23T07:54:13;97122.91;;;17.16;24.86
34297;BME280;20564;42.902;25.336;2024-03-23T07:56:41;97114.72;;;17.32;25.20
34297;BME280;20564;42.902;25.336;2024-03-23T07:59:07;97116.47;;;17.25;23.80
34297;BME280;20564;42.902;25.336;2024-03-23T08:01:33;97114.00;;;17.38;23.36
34297;BME280;20564;42.902;25.336;2024-03-23T08:04:00;97110.41;;;17.46;27.00
34297;BME280;20564;42.902;25.336;2024-03-23T08:06:30;97103.78;;;17.56;21.88
34297;BME280;20564;42.902;25.336;2024-03-23T08:08:57;97102.56;;;17.74;23.02
34297;BME280;20564;42.902;25.336;2024-03-23T08:11:36;97104.56;;;17.72;23.14
34297;BME280;20564;42.902;25.336;2024-03-23T08:14:02;97101.03;;;18.01;22.17
34297;BME280;20564;42.902;25.336;2024-03-23T08:16:32;97101.25;;;17.99;20.11
34297;BME280;20564;42.902;25.336;2024-03-23T08:19:03;97104.53;;;18.01;20.00
34297;BME280;20564;42.902;25.336;2024-03-23T08:21:37;97100.97;;;18.16;19.33
34297;BME280;20564;42.902;25.336;2024-03-23T08:24:04;97101.81;;;18.38;19.42
34297;BME280;20564;42.902;25.336;2024-03-23T08:26:31;97095.56;;;18.52;18.35
34297;BME280;20564;42.902;25.336;2024-03-23T08:28:59;97090.25;;;18.52;19.67
34297;BME280;20564;42.902;25.336;2024-03-23T08:31:36;97103.41;;;18.11;20.20
34297;BME280;20564;42.902;25.336;2024-03-23T08:34:04;97094.09;;;18.21;19.05
34297;BME280;20564;42.902;25.336;2024-03-23T08:36:30;97096.34;;;18.24;17.45
34297;BME280;20564;42.902;25.336;2024-03-23T08:38:57;97089.94;;;18.40;18.73
34297;BME280;20564;42.902;25.336;2024-03-23T08:41:27;97091.38;;;18.43;16.45
34297;BME280;20564;42.902;25.336;2024-03-23T08:43:56;97095.78;;;18.50;19.18
34297;BME280;20564;42.902;25.336;2024-03-23T08:46:23;97088.59;;;18.51;18.09
34297;BME280;20564;42.902;25.336;2024-03-23T08:48:58;97088.59;;;18.51;17.05
34297;BME280;20564;42.902;25.336;2024-03-23T08:51:31;97086.50;;;18.46;17.43
34297;BME280;20564;42.902;25.336;2024-03-23T08:54:03;97085.72;;;18.74;18.35
34297;BME280;20564;42.902;25.336;2024-03-23T08:56:33;97084.78;;;18.88;16.30
34297;BME280;20564;42.902;25.336;2024-03-23T08:58:59;97073.03;;;18.54;16.68
34297;BME280;20564;42.902;25.336;2024-03-23T09:01:26;97075.72;;;18.33;16.88
34297;BME280;20564;42.902;25.336;2024-03-23T09:03:52;97076.72;;;18.53;16.92
34297;BME280;20564;42.902;25.336;2024-03-23T09:06:18;97070.03;;;18.64;17.00
34297;BME280;20564;42.902;25.336;2024-03-23T09:08:44;97071.88;;;18.64;17.66
34297;BME280;20564;42.902;25.336;2024-03-23T09:11:14;97070.56;;;18.31;18.30
34297;BME280;20564;42.902;25.336;2024-03-23T09:13:43;97074.34;;;18.16;17.90
34297;BME280;20564;42.902;25.336;2024-03-23T09:16:09;97064.72;;;18.43;17.29
34297;BME280;20564;42.902;25.336;2024-03-23T09:18:36;97061.25;;;18.70;19.01
34297;BME280;20564;42.902;25.336;2024-03-23T09:21:15;97055.22;;;18.83;18.01
34297;BME280;20564;42.902;25.336;2024-03-23T09:23:53;97053.31;;;19.05;18.55
34297;BME280;20564;42.902;25.336;2024-03-23T09:27:12;97054.44;;;19.24;18.89
34297;BME280;20564;42.902;25.336;2024-03-23T09:29:56;97041.56;;;19.47;19.34
34297;BME280;20564;42.902;25.336;2024-03-23T09:32:43;97050.25;;;19.15;19.67
34297;BME280;20564;42.902;25.336;2024-03-23T09:35:09;97040.69;;;19.27;20.66
34297;BME280;20564;42.902;25.336;2024-03-23T09:37:36;97037.88;;;19.42;19.79
34297;BME280;20564;42.902;25.336;2024-03-23T09:40:11;97032.97;;;19.45;19.91
34297;BME280;20564;42.902;25.336;2024-03-23T09:43:01;97026.13;;;19.36;20.22
34297;BME280;20564;42.902;25.336;2024-03-23T09:48:35;97025.41;;;19.08;20.21
34297;BME280;20564;42.902;25.336;2024-03-23T09:51:28;97019.34;;;19.27;21.33
34297;BME280;20564;42.902;25.336;2024-03-23T09:57:15;97014.00;;;19.34;20.26
34297;BME280;20564;42.902;25.336;2024-03-23T09:59:50;97011.53;;;19.25;19.68
34297;BME280;20564;42.902;25.336;2024-03-23T10:02:24;97008.25;;;19.30;20.24
34297;BME280;20564;42.902;25.336;2024-03-23T10:04:53;97009.94;;;19.44;21.37
34297;BME280;20564;42.902;25.336;2024-03-23T10:07:20;97005.25;;;19.53;22.24
34297;BME280;20564;42.902;25.336;2024-03-23T10:09:49;97004.16;;;19.27;20.59
34297;BME280;20564;42.902;25.336;2024-03-23T10:12:22;97003.50;;;19.25;22.02
34297;BME280;20564;42.902;25.336;2024-03-23T10:14:50;96992.88;;;19.32;21.39
34297;BME280;20564;42.902;25.336;2024-03-23T10:17:21;96988.97;;;19.41;22.55
34297;BME280;20564;42.902;25.336;2024-03-23T10:23:31;96986.22;;;19.15;21.58
34297;BME280;20564;42.902;25.336;2024-03-23T10:26:20;96982.78;;;19.21;20.83
34297;BME280;20564;42.902;25.336;2024-03-23T10:29:20;96976.78;;;19.12;21.44
34297;BME280;20564;42.902;25.336;2024-03-23T10:31:46;96967.31;;;19.03;21.65
34297;BME280;20564;42.902;25.336;2024-03-23T10:34:25;96972.03;;;19.08;21.96
34297;BME280;20564;42.902;25.336;2024-03-23T10:36:56;96960.63;;;19.27;21.72
34297;BME280;20564;42.902;25.336;2024-03-23T10:39:42;96959.22;;;19.31;21.21
34297;BME280;20564;42.902;25.336;2024-03-23T10:42:09;96952.78;;;19.19;20.98
34297;BME280;20564;42.902;25.336;2024-03-23T10:44:43;96949.78;;;19.35;21.62
34297;BME280;20564;42.902;25.336;2024-03-23T10:47:09;96951.19;;;19.38;21.89
34297;BME280;20564;42.902;25.336;2024-03-23T10:49:35;96947.03;;;19.09;22.50
34297;BME280;20564;42.902;25.336;2024-03-23T10:52:03;96939.19;;;19.00;21.55
34297;BME280;20564;42.902;25.336;2024-03-23T10:54:31;96940.44;;;19.04;22.58
34297;BME280;20564;42.902;25.336;2024-03-23T10:59:42;96920.91;;;18.91;21.96
34297;BME280;20564;42.902;25.336;2024-03-23T11:02:20;96923.56;;;18.97;21.75
34297;BME280;20564;42.902;25.336;2024-03-23T11:04:47;96915.75;;;18.89;22.44
34297;BME280;20564;42.902;25.336;2024-03-23T11:07:30;96906.69;;;18.77;22.53
34297;BME280;20564;42.902;25.336;2024-03-23T11:09:58;96902.13;;;18.71;23.54
34297;BME280;20564;42.902;25.336;2024-03-23T11:12:47;96898.84;;;18.69;23.70
34297;BME280;20564;42.902;25.336;2024-03-23T11:15:25;96898.59;;;18.64;23.73
34297;BME280;20564;42.902;25.336;2024-03-23T11:18:06;96888.88;;;18.49;22.99
34297;BME280;20564;42.902;25.336;2024-03-23T11:20:38;96883.16;;;18.52;23.60
34297;BME280;20564;42.902;25.336;2024-03-23T11:23:21;96878.66;;;18.53;22.95
34297;BME280;20564;42.902;25.336;2024-03-23T11:25:55;96877.03;;;18.59;24.70
34297;BME280;20564;42.902;25.336;2024-03-23T11:28:32;96870.91;;;18.65;23.14
34297;BME280;20564;42.902;25.336;2024-03-23T11:30:59;96872.81;;;18.71;24.04
34297;BME280;20564;42.902;25.336;2024-03-23T11:33:25;96858.44;;;18.72;23.80
34297;BME280;20564;42.902;25.336;2024-03-23T11:36:09;96866.06;;;18.75;24.87
34297;BME280;20564;42.902;25.336;2024-03-23T11:39:18;96854.41;;;18.89;24.36
34297;BME280;20564;42.902;25.336;2024-03-23T11:41:55;96851.41;;;19.06;23.73
34297;BME280;20564;42.902;25.336;2024-03-23T11:44:23;96840.31;;;19.09;23.79
34297;BME280;20564;42.902;25.336;2024-03-23T11:46:49;96842.75;;;19.03;25.01
34297;BME280;20564;42.902;25.336;2024-03-23T11:49:27;96833.13;;;19.09;24.41
34297;BME280;20564;42.902;25.336;2024-03-23T11:52:17;96827.41;;;19.25;24.08
34297;BME280;20564;42.902;25.336;2024-03-23T11:54:43;96834.00;;;19.43;24.26
34297;BME280;20564;42.902;25.336;2024-03-23T11:57:12;96826.38;;;19.33;24.88
34297;BME280;20564;42.902;25.336;2024-03-23T11:59:40;96826.38;;;19.33;22.78
34297;BME280;20564;42.902;25.336;2024-03-23T12:04:34;96813.66;;;19.35;23.56
34297;BME280;20564;42.902;25.336;2024-03-23T12:07:16;96798.66;;;19.21;24.46
34297;BME280;20564;42.902;25.336;2024-03-23T12:10:05;96811.19;;;19.14;26.23
34297;BME280;20564;42.902;25.336;2024-03-23T12:12:39;96809.91;;;18.96;25.79
34297;BME280;20564;42.902;25.336;2024-03-23T12:15:07;96791.88;;;18.98;25.07
34297;BME280;20564;42.902;25.336;2024-03-23T12:17:34;96798.22;;;18.97;24.30
34297;BME280;20564;42.902;25.336;2024-03-23T12:20:01;96787.38;;;19.06;24.35
34297;BME280;20564;42.902;25.336;2024-03-23T12:22:33;96784.31;;;19.09;24.96
34297;BME280;20564;42.902;25.336;2024-03-23T12:25:01;96774.66;;;19.14;25.08
34297;BME280;20564;42.902;25.336;2024-03-23T12:27:28;96778.56;;;19.05;26.02
34297;BME280;20564;42.902;25.336;2024-03-23T12:29:54;96773.00;;;19.07;25.52
34297;BME280;20564;42.902;25.336;2024-03-23T12:32:32;96768.88;;;19.04;24.51
34297;BME280;20564;42.902;25.336;2024-03-23T12:34:59;96757.38;;;18.90;24.40
34297;BME280;20564;42.902;25.336;2024-03-23T12:37:43;96758.22;;;18.84;25.56
34297;BME280;20564;42.902;25.336;2024-03-23T12:40:10;96759.41;;;18.75;24.63
34297;BME280;20564;42.902;25.336;2024-03-23T12:42:39;96752.44;;;18.74;24.19
34297;BME280;20564;42.902;25.336;2024-03-23T12:45:05;96750.34;;;18.69;24.98
34297;BME280;20564;42.902;25.336;2024-03-23T12:47:31;96743.81;;;18.78;24.42
34297;BME280;20564;42.902;25.336;2024-03-23T12:49:57;96748.56;;;18.83;24.74
34297;BME280;20564;42.902;25.336;2024-03-23T12:52:23;96737.28;;;18.88;25.51
34297;BME280;20564;42.902;25.336;2024-03-23T12:54:56;96738.31;;;18.93;25.02
34297;BME280;20564;42.902;25.336;2024-03-23T12:57:23;96728.88;;;18.84;25.67
34297;BME280;20564;42.902;25.336;2024-03-23T12:59:51;96728.88;;;18.97;25.29
34297;BME280;20564;42.902;25.336;2024-03-23T13:02:20;96727.03;;;19.04;25.04
34297;BME280;20564;42.902;25.336;2024-03-23T13:04:49;96726.00;;;18.92;25.48
34297;BME280;20564;42.902;25.336;2024-03-23T13:07:15;96723.75;;;18.89;26.58
34297;BME280;20564;42.902;25.336;2024-03-23T13:09:41;96723.13;;;18.87;25.23
34297;BME280;20564;42.902;25.336;2024-03-23T13:12:07;96715.75;;;18.96;24.66
34297;BME280;20564;42.902;25.336;2024-03-23T13:14:33;96709.00;;;18.87;25.59
34297;BME280;20564;42.902;25.336;2024-03-23T13:16:59;96707.75;;;18.89;25.28
34297;BME280;20564;42.902;25.336;2024-03-23T13:19:24;96703.25;;;18.83;24.64
34297;BME280;20564;42.902;25.336;2024-03-23T13:21:57;96698.72;;;18.77;24.51
34297;BME280;20564;42.902;25.336;2024-03-23T13:24:24;96705.09;;;18.76;24.73
34297;BME280;20564;42.902;25.336;2024-03-23T13:26:53;96696.22;;;18.75;24.07
34297;BME280;20564;42.902;25.336;2024-03-23T13:29:19;96699.75;;;18.76;24.84
34297;BME280;20564;42.902;25.336;2024-03-23T13:31:49;96684.75;;;18.82;24.00
34297;BME280;20564;42.902;25.336;2024-03-23T13:34:16;96683.94;;;18.81;24.66
34297;BME280;20564;42.902;25.336;2024-03-23T13:36:46;96688.84;;;18.71;25.19
34297;BME280;20564;42.902;25.336;2024-03-23T13:39:13;96686.41;;;18.76;23.63
34297;BME280;20564;42.902;25.336;2024-03-23T13:41:40;96676.16;;;18.73;23.14
34297;BME280;20564;42.902;25.336;2024-03-23T13:44:06;96681.03;;;18.63;25.05
34297;BME280;20564;42.902;25.336;2024-03-23T13:46:33;96681.00;;;18.56;24.38
34297;BME280;20564;42.902;25.336;2024-03-23T13:48:59;96677.94;;;18.52;24.50
34297;BME280;20564;42.902;25.336;2024-03-23T13:51:27;96672.19;;;18.55;25.38
34297;BME280;20564;42.902;25.336;2024-03-23T13:53:54;96669.97;;;18.66;24.52
34297;BME280;20564;42.902;25.336;2024-03-23T13:56:20;96665.88;;;18.70;24.00
34297;BME280;20564;42.902;25.336;2024-03-23T13:58:46;96668.13;;;18.66;24.50
34297;BME280;20564;42.902;25.336;2024-03-23T14:01:16;96660.53;;;18.70;24.65
34297;BME280;20564;42.902;25.336;2024-03-23T14:03:43;96658.09;;;18.75;23.79
34297;BME280;20564;42.902;25.336;2024-03-23T14:06:09;96654.38;;;18.63;23.98
34297;BME280;20564;42.902;25.336;2024-03-23T14:08:36;96661.53;;;18.55;24.86
34297;BME280;20564;42.902;25.336;2024-03-23T14:11:13;96649.03;;;18.49;24.72
34297;BME280;20564;42.902;25.336;2024-03-23T14:13:39;96657.84;;;18.50;25.58
34297;BME280;20564;42.902;25.336;2024-03-23T14:16:06;96653.53;;;18.55;24.95
34297;BME280;20564;42.902;25.336;2024-03-23T14:18:32;96650.06;;;18.62;25.55
34297;BME280;20564;42.902;25.336;2024-03-23T14:21:00;96643.75;;;18.76;23.75
34297;BME280;20564;42.902;25.336;2024-03-23T14:23:31;96639.66;;;18.80;23.96
34297;BME280;20564;42.902;25.336;2024-03-23T14:26:00;96638.84;;;18.73;26.65